createdAt,value
2019-04-26T00:00:16.599Z,0.70
2019-04-26T00:01:23.060Z,0.53
2019-04-26T00:02:37.964Z,0.70
2019-04-26T00:03:46.661Z,0.53
2019-04-26T00:04:51.411Z,0.57
2019-04-26T00:05:55.972Z,0.60
2019-04-26T00:07:00.465Z,0.60
2019-04-26T00:08:05.542Z,0.50
2019-04-26T00:09:17.860Z,0.60
2019-04-26T00:10:32.831Z,0.90
2019-04-26T00:11:42.005Z,0.70
2019-04-26T00:12:48.187Z,0.62
2019-04-26T00:14:03.415Z,0.70
2019-04-26T00:15:25.982Z,0.50
2019-04-26T00:16:38.332Z,0.80
2019-04-26T00:17:47.133Z,0.60
2019-04-26T00:18:51.614Z,0.78
2019-04-26T00:19:56.140Z,0.72
2019-04-26T00:21:00.981Z,0.80
2019-04-26T00:22:05.595Z,0.70
2019-04-26T00:23:10.819Z,0.78
2019-04-26T00:24:17.263Z,0.70
2019-04-26T00:25:22.773Z,0.60
2019-04-26T00:26:27.454Z,0.90
2019-04-26T00:27:32.063Z,0.70
2019-04-26T00:28:36.562Z,0.70
2019-04-26T00:29:41.093Z,0.60
2019-04-26T00:30:45.654Z,0.60
2019-04-26T00:31:50.125Z,0.50
2019-04-26T00:32:54.630Z,0.70
2019-04-26T00:33:59.082Z,0.60
2019-04-26T00:35:04.176Z,0.63
2019-04-26T00:36:08.645Z,0.70
2019-04-26T00:37:14.039Z,0.70
2019-04-26T00:38:18.679Z,0.53
2019-04-26T00:39:24.918Z,0.55
2019-04-26T00:40:29.648Z,0.70
2019-04-26T00:41:34.263Z,0.65
2019-04-26T00:42:38.808Z,0.90
2019-04-26T00:43:43.627Z,0.72
2019-04-26T00:44:50.786Z,0.77
2019-04-26T00:45:57.511Z,0.72
2019-04-26T00:47:02.951Z,0.73
2019-04-26T00:48:09.137Z,0.67
2019-04-26T00:49:15.099Z,0.63
2019-04-26T00:50:21.233Z,0.67
2019-04-26T00:51:26.159Z,0.67
2019-04-26T00:52:31.439Z,0.80
2019-04-26T00:53:39.101Z,0.70
2019-04-26T00:54:44.428Z,0.70
2019-04-26T00:55:49.740Z,0.78
2019-04-26T00:56:55.667Z,0.78
2019-04-26T00:58:00.640Z,0.70
2019-04-26T00:59:06.750Z,0.60
2019-04-26T01:00:13.919Z,0.70
2019-04-26T01:01:20.691Z,0.80
2019-04-26T01:02:26.992Z,0.60
2019-04-26T01:03:31.469Z,0.60
2019-04-26T01:04:36.008Z,0.70
2019-04-26T01:05:41.282Z,0.70
2019-04-26T01:06:47.405Z,0.70
2019-04-26T01:07:53.610Z,0.70
2019-04-26T01:08:58.097Z,1.00
2019-04-26T01:10:02.714Z,0.70
2019-04-26T01:11:07.219Z,0.60
2019-04-26T01:12:11.684Z,0.90
2019-04-26T01:13:16.430Z,0.70
2019-04-26T01:14:22.110Z,0.80
2019-04-26T01:15:26.780Z,0.98
2019-04-26T01:16:31.404Z,0.90
2019-04-26T01:17:35.892Z,0.53
2019-04-26T01:18:40.808Z,0.70
2019-04-26T01:19:47.852Z,0.80
2019-04-26T01:20:55.437Z,0.78
2019-04-26T01:22:03.010Z,0.80
2019-04-26T01:23:10.300Z,0.70
2019-04-26T01:24:15.606Z,0.70
2019-04-26T01:25:44.232Z,0.60
2019-04-26T01:26:50.748Z,0.60
2019-04-26T01:27:55.489Z,0.60
2019-04-26T01:29:05.555Z,0.70
2019-04-26T01:30:12.331Z,0.80
2019-04-26T01:31:18.465Z,0.60
2019-04-26T01:32:24.092Z,0.80
2019-04-26T01:33:29.439Z,0.70
2019-04-26T01:34:34.595Z,0.70
2019-04-26T01:35:40.309Z,0.78
2019-04-26T01:36:45.132Z,0.82
2019-04-26T01:37:50.876Z,0.80
2019-04-26T01:38:58.766Z,0.72
2019-04-26T01:40:08.289Z,0.78
2019-04-26T01:41:16.224Z,0.80
2019-04-26T01:42:26.394Z,0.90
2019-04-26T01:43:47.566Z,0.63
2019-04-26T01:45:12.726Z,0.93
2019-04-26T01:46:25.504Z,0.70
2019-04-26T01:47:30.193Z,0.63
2019-04-26T01:48:52.663Z,0.68
2019-04-26T01:49:57.208Z,0.98
2019-04-26T01:51:02.053Z,0.62
2019-04-26T01:52:11.095Z,0.72
2019-04-26T01:53:15.622Z,0.70
2019-04-26T01:54:24.130Z,0.70
2019-04-26T01:55:31.256Z,0.73
2019-04-26T01:56:37.653Z,0.70
2019-04-26T01:57:42.846Z,0.60
2019-04-26T01:58:48.556Z,0.70
2019-04-26T01:59:58.136Z,0.83
2019-04-26T02:01:04.652Z,0.80
2019-04-26T02:02:27.682Z,0.95
2019-04-26T02:03:32.412Z,1.00
2019-04-26T02:04:39.152Z,0.78
2019-04-26T02:05:43.640Z,0.90
2019-04-26T02:06:48.256Z,0.95
2019-04-26T02:07:53.707Z,0.90
2019-04-26T02:08:58.351Z,0.80
2019-04-26T02:10:02.907Z,0.80
2019-04-26T02:11:07.475Z,1.00
2019-04-26T02:12:12.102Z,1.10
2019-04-26T02:13:17.008Z,1.20
2019-04-26T02:14:22.669Z,1.00
2019-04-26T02:15:31.226Z,0.88
2019-04-26T02:16:36.956Z,0.90
2019-04-26T02:17:42.715Z,0.98
2019-04-26T02:18:47.263Z,0.85
2019-04-26T02:19:51.985Z,0.82
2019-04-26T02:20:59.727Z,0.95
2019-04-26T02:22:06.761Z,0.80
2019-04-26T02:23:12.956Z,0.80
2019-04-26T02:24:19.220Z,0.70
2019-04-26T02:25:24.622Z,0.90
2019-04-26T02:26:40.079Z,0.90
2019-04-26T02:27:44.955Z,0.90
2019-04-26T02:28:49.990Z,0.90
2019-04-26T02:29:55.202Z,0.90
2019-04-26T02:30:59.930Z,0.95
2019-04-26T02:32:06.342Z,0.98
2019-04-26T02:33:11.142Z,0.80
2019-04-26T02:34:16.247Z,0.90
2019-04-26T02:35:20.800Z,1.00
2019-04-26T02:36:46.418Z,1.30
2019-04-26T02:37:34.178Z,0.90
2019-04-26T02:38:39.228Z,1.00
2019-04-26T02:39:44.373Z,0.90
2019-04-26T02:40:51.010Z,1.00
2019-04-26T02:41:58.551Z,1.07
2019-04-26T02:43:03.096Z,1.00
2019-04-26T02:44:12.829Z,1.05
2019-04-26T02:45:50.593Z,1.02
2019-04-26T02:47:28.914Z,1.00
2019-04-26T02:48:38.295Z,0.80
2019-04-26T02:49:49.090Z,0.80
2019-04-26T02:51:00.769Z,0.90
2019-04-26T02:52:08.647Z,1.00
2019-04-26T02:53:35.359Z,0.90
2019-04-26T02:55:17.605Z,1.10
2019-04-26T02:56:32.175Z,0.80
2019-04-26T02:57:46.059Z,0.98
2019-04-26T02:58:59.706Z,1.20
2019-04-26T03:00:07.307Z,0.90
2019-04-26T03:01:12.047Z,1.10
2019-04-26T03:02:19.728Z,1.10
2019-04-26T03:03:25.760Z,0.95
2019-04-26T03:04:32.669Z,0.90
2019-04-26T03:05:41.244Z,0.97
2019-04-26T03:07:02.510Z,1.00
2019-04-26T03:07:59.775Z,1.32
2019-04-26T03:09:07.903Z,0.90
2019-04-26T03:10:13.683Z,0.90
2019-04-26T03:11:21.293Z,0.90
2019-04-26T03:12:28.957Z,1.00
2019-04-26T03:13:41.021Z,1.30
2019-04-26T03:15:12.166Z,0.90
2019-04-26T03:16:08.916Z,1.12
2019-04-26T03:17:24.924Z,0.90
2019-04-26T03:18:41.536Z,1.17
2019-04-26T03:19:56.183Z,1.03
2019-04-26T03:21:06.680Z,0.97
2019-04-26T03:22:26.104Z,1.00
2019-04-26T03:23:57.001Z,1.00
2019-04-26T03:25:13.716Z,1.07
2019-04-26T03:26:31.564Z,1.00
2019-04-26T03:27:53.946Z,0.90
2019-04-26T03:29:16.982Z,0.90
2019-04-26T03:30:41.445Z,1.10
2019-04-26T03:31:52.309Z,1.00
2019-04-26T03:32:58.116Z,0.90
2019-04-26T03:34:09.281Z,0.90
2019-04-26T03:35:26.897Z,1.07
2019-04-26T03:36:51.151Z,1.27
2019-04-26T03:38:18.108Z,1.00
2019-04-26T03:39:45.004Z,1.10
2019-04-26T03:41:02.772Z,0.80
2019-04-26T03:42:14.634Z,0.80
2019-04-26T03:43:35.103Z,1.17
2019-04-26T03:45:01.613Z,1.10
2019-04-26T03:46:17.535Z,1.00
2019-04-26T03:47:25.165Z,1.00
2019-04-26T03:48:53.459Z,1.13
2019-04-26T03:50:15.762Z,1.05
2019-04-26T03:51:35.741Z,1.20
2019-04-26T03:53:06.608Z,1.20
2019-04-26T03:54:14.186Z,1.10
2019-04-26T03:55:36.386Z,1.20
2019-04-26T03:56:48.621Z,1.10
2019-04-26T03:58:03.539Z,1.00
2019-04-26T03:59:12.721Z,1.10
2019-04-26T04:00:20.496Z,1.07
2019-04-26T04:01:28.950Z,1.33
2019-04-26T04:02:52.601Z,1.10
2019-04-26T04:04:02.612Z,1.17
2019-04-26T04:05:17.721Z,1.30
2019-04-26T04:06:29.620Z,1.20
2019-04-26T04:07:43.939Z,1.10
2019-04-26T04:08:51.877Z,1.13
2019-04-26T04:10:02.104Z,1.00
2019-04-26T04:11:09.666Z,1.20
2019-04-26T04:12:23.143Z,1.00
2019-04-26T04:13:56.428Z,1.00
2019-04-26T04:15:04.127Z,1.23
2019-04-26T04:16:28.330Z,1.20
2019-04-26T04:17:45.500Z,1.00
2019-04-26T04:18:54.070Z,1.20
2019-04-26T04:20:23.852Z,1.07
2019-04-26T04:21:38.636Z,1.07
2019-04-26T04:22:45.892Z,1.00
2019-04-26T04:24:09.705Z,1.00
2019-04-26T04:25:17.383Z,1.03
2019-04-26T04:26:25.306Z,0.80
2019-04-26T04:27:43.439Z,1.30
2019-04-26T04:29:19.022Z,0.90
2019-04-26T04:30:45.882Z,1.10
2019-04-26T04:32:05.617Z,1.20
2019-04-26T04:33:18.766Z,1.20
2019-04-26T04:34:38.264Z,0.88
2019-04-26T04:35:52.848Z,1.10
2019-04-26T04:37:00.613Z,0.98
2019-04-26T04:38:27.667Z,1.05
2019-04-26T04:39:38.241Z,0.90
2019-04-26T04:40:53.433Z,1.10
2019-04-26T04:42:44.550Z,1.10
2019-04-26T04:43:54.929Z,1.10
2019-04-26T04:45:25.983Z,1.20
2019-04-26T04:46:49.178Z,1.20
2019-04-26T04:48:25.657Z,1.07
2019-04-26T04:50:01.454Z,1.00
2019-04-26T04:51:14.721Z,1.00
2019-04-26T04:52:52.034Z,1.10
2019-04-26T04:54:08.144Z,0.80
2019-04-26T04:55:43.506Z,1.20
2019-04-26T04:57:09.990Z,1.20
2019-04-26T04:58:20.521Z,1.20
2019-04-26T04:59:48.125Z,1.00
2019-04-26T05:01:12.118Z,0.93
2019-04-26T05:02:33.050Z,1.00
2019-04-26T05:03:46.947Z,1.07
2019-04-26T05:05:14.004Z,1.00
2019-04-26T05:06:31.963Z,1.20
2019-04-26T05:08:06.309Z,1.20
2019-04-26T05:09:09.594Z,0.93
2019-04-26T05:10:20.000Z,1.00
2019-04-26T05:11:44.833Z,1.10
2019-04-26T05:13:12.011Z,1.00
2019-04-26T05:14:19.644Z,1.10
2019-04-26T05:15:44.637Z,1.00
2019-04-26T05:17:08.537Z,1.00
2019-04-26T05:18:19.019Z,1.40
2019-04-26T05:19:50.647Z,1.23
2019-04-26T05:21:09.915Z,1.13
2019-04-26T05:22:39.761Z,0.90
2019-04-26T05:24:17.367Z,0.98
2019-04-26T05:25:53.579Z,1.03
2019-04-26T05:27:26.832Z,1.00
2019-04-26T05:28:56.333Z,0.93
2019-04-26T05:30:14.292Z,1.00
2019-04-26T05:31:36.875Z,1.00
2019-04-26T05:32:50.644Z,1.10
2019-04-26T05:34:11.150Z,1.10
2019-04-26T05:35:47.390Z,1.00
2019-04-26T05:37:00.712Z,0.90
2019-04-26T05:38:23.041Z,1.17
2019-04-26T05:39:47.745Z,1.13
2019-04-26T05:41:01.375Z,1.17
2019-04-26T05:42:37.600Z,1.00
2019-04-26T05:44:10.605Z,1.00
2019-04-26T05:45:56.092Z,1.10
2019-04-26T05:47:29.285Z,1.07
2019-04-26T05:48:53.629Z,0.98
2019-04-26T05:50:22.043Z,1.20
2019-04-26T05:51:56.438Z,1.20
2019-04-26T05:53:20.081Z,1.20
2019-04-26T05:54:50.825Z,1.15
2019-04-26T05:56:12.456Z,1.10
2019-04-26T05:57:45.594Z,1.05
2019-04-26T05:59:11.046Z,1.00
2019-04-26T06:00:20.225Z,1.10
2019-04-26T06:01:54.818Z,1.10
2019-04-26T06:03:12.849Z,0.90
2019-04-26T06:04:46.102Z,0.93
2019-04-26T06:06:07.067Z,1.00
2019-04-26T06:07:24.886Z,1.03
2019-04-26T06:08:43.274Z,1.17
2019-04-26T06:10:25.685Z,1.10
2019-04-26T06:11:34.891Z,1.00
2019-04-26T06:13:01.627Z,1.05
2019-04-26T06:14:36.015Z,1.00
2019-04-26T06:15:53.698Z,1.20
2019-04-26T06:17:18.700Z,1.27
2019-04-26T06:18:45.427Z,1.27
2019-04-26T06:20:23.199Z,1.20
2019-04-26T06:21:38.164Z,1.10
2019-04-26T06:22:57.474Z,1.10
2019-04-26T06:24:27.640Z,1.20
2019-04-26T06:25:39.768Z,1.10
2019-04-26T06:27:14.080Z,1.30
2019-04-26T06:28:20.602Z,1.20
2019-04-26T06:29:45.826Z,1.10
2019-04-26T06:31:09.948Z,1.10
2019-04-26T06:32:20.155Z,1.05
2019-04-26T06:33:33.367Z,1.00
2019-04-26T06:34:46.878Z,1.13
2019-04-26T06:35:55.792Z,1.23
2019-04-26T06:37:07.638Z,1.00
2019-04-26T06:38:43.681Z,0.93
2019-04-26T06:39:58.603Z,1.20
2019-04-26T06:41:11.689Z,1.10
2019-04-26T06:42:35.427Z,1.50
2019-04-26T06:43:50.408Z,1.30
2019-04-26T06:45:20.313Z,1.10
2019-04-26T06:46:56.270Z,1.10
2019-04-26T06:48:35.373Z,1.13
2019-04-26T06:50:20.304Z,1.10
2019-04-26T06:51:30.888Z,1.22
2019-04-26T06:52:38.460Z,1.20
2019-04-26T06:53:51.805Z,1.10
2019-04-26T06:55:02.313Z,1.30
2019-04-26T06:56:33.720Z,1.17
2019-04-26T06:58:08.237Z,1.10
2019-04-26T06:59:36.502Z,1.10
2019-04-26T07:01:08.160Z,1.20
2019-04-26T07:02:33.452Z,1.30
2019-04-26T07:03:59.691Z,1.20
2019-04-26T07:05:15.276Z,1.22
2019-04-26T07:06:41.340Z,1.10
2019-04-26T07:08:21.235Z,1.22
2019-04-26T07:09:28.815Z,1.40
2019-04-26T07:10:59.564Z,1.17
2019-04-26T07:12:26.943Z,1.17
2019-04-26T07:13:44.657Z,1.17
2019-04-26T07:28:25.205Z,1.30
2019-04-26T07:29:38.793Z,1.35
2019-04-26T07:31:26.942Z,1.20
2019-04-26T07:33:09.228Z,1.00
2019-04-26T07:34:56.030Z,1.30
2019-04-26T07:36:09.811Z,1.20
2019-04-26T07:37:35.390Z,1.22
2019-04-26T07:39:20.415Z,1.40
2019-04-26T07:40:46.777Z,1.33
2019-04-26T07:42:25.840Z,1.30
2019-04-26T07:44:01.012Z,1.22
2019-04-26T07:45:16.385Z,1.30
2019-04-26T07:46:38.746Z,1.67
2019-04-26T07:47:56.764Z,1.40
2019-04-26T07:49:13.019Z,1.20
2019-04-26T07:50:48.806Z,1.50
2019-04-26T07:52:18.832Z,1.10
2019-04-26T07:53:31.826Z,1.40
2019-04-26T07:54:55.858Z,1.23
2019-04-26T07:56:15.036Z,1.20
2019-04-26T07:57:39.108Z,1.30
2019-04-26T07:59:06.838Z,1.10
2019-04-26T08:00:21.333Z,1.20
2019-04-26T08:01:51.449Z,1.17
2019-04-26T08:03:04.132Z,1.20
2019-04-26T08:04:17.282Z,1.10
2019-04-26T08:05:41.377Z,1.10
2019-04-26T08:06:52.185Z,1.17
2019-04-26T08:08:00.074Z,1.27
2019-04-26T08:09:24.192Z,1.32
2019-04-26T08:10:21.479Z,1.10
2019-04-26T08:11:31.824Z,1.20
2019-04-26T08:12:39.657Z,1.30
2019-04-26T08:13:59.443Z,1.25
2019-04-26T08:15:15.624Z,1.60
2019-04-26T08:16:30.131Z,1.20
2019-04-26T08:17:47.497Z,1.12
2019-04-26T08:19:02.477Z,1.50
2019-04-26T08:20:32.028Z,1.30
2019-04-26T08:21:47.819Z,1.10
2019-04-26T08:22:52.373Z,1.22
2019-04-26T08:24:01.111Z,1.20
2019-04-26T08:25:10.325Z,1.10
2019-04-26T08:26:18.007Z,1.00
2019-04-26T08:27:25.553Z,1.27
2019-04-26T08:28:33.131Z,1.50
2019-04-26T08:29:40.626Z,1.17
2019-04-26T08:30:48.332Z,1.10
2019-04-26T08:31:57.800Z,1.05
2019-04-26T08:33:07.563Z,1.30
2019-04-26T08:34:13.039Z,1.07
2019-04-26T08:35:21.886Z,1.23
2019-04-26T08:36:29.686Z,1.30
2019-04-26T08:37:53.743Z,0.90
2019-04-26T08:39:00.261Z,1.10
2019-04-26T08:40:07.021Z,1.30
2019-04-26T08:41:11.748Z,1.20
2019-04-26T08:42:20.096Z,1.10
2019-04-26T08:43:34.679Z,1.10
2019-04-26T08:44:50.904Z,1.10
2019-04-26T08:46:12.560Z,1.00
2019-04-26T08:47:24.479Z,1.07
2019-04-26T08:48:29.549Z,1.20
2019-04-26T08:49:39.100Z,0.97
2019-04-26T08:50:45.879Z,1.10
2019-04-26T08:51:52.185Z,1.20
2019-04-26T08:53:00.311Z,1.00
2019-04-26T08:54:08.570Z,1.10
2019-04-26T08:55:15.144Z,1.20
2019-04-26T08:56:28.856Z,1.05
2019-04-26T08:57:36.558Z,1.10
2019-04-26T08:58:44.215Z,1.07
2019-04-26T08:59:54.805Z,1.07
2019-04-26T09:01:06.865Z,1.00
2019-04-26T09:02:27.948Z,0.80
2019-04-26T09:03:54.896Z,1.10
2019-04-26T09:05:09.759Z,1.07
2019-04-26T09:06:21.209Z,0.77
2019-04-26T09:07:32.378Z,0.98
2019-04-26T09:08:43.223Z,1.00
2019-04-26T09:09:57.054Z,0.90
2019-04-26T09:10:57.693Z,1.15
2019-04-26T09:12:08.255Z,1.00
2019-04-26T09:13:14.953Z,0.90
2019-04-26T09:14:21.601Z,1.12
2019-04-26T09:15:45.797Z,1.00
2019-04-26T09:16:50.927Z,1.00
2019-04-26T09:17:55.761Z,1.00
2019-04-26T09:19:00.405Z,1.00
2019-04-26T09:20:07.874Z,0.95
2019-04-26T09:21:15.770Z,1.00
2019-04-26T09:22:27.492Z,0.97
2019-04-26T09:23:51.983Z,0.97
2019-04-26T09:25:03.185Z,1.05
2019-04-26T09:26:12.473Z,1.37
2019-04-26T09:27:20.935Z,0.90
2019-04-26T09:28:29.841Z,0.90
2019-04-26T09:29:41.634Z,1.00
2019-04-26T09:30:53.346Z,1.00
2019-04-26T09:32:11.598Z,0.90
2019-04-26T09:33:17.836Z,0.80
2019-04-26T09:34:24.659Z,0.88
2019-04-26T09:35:29.203Z,1.20
2019-04-26T09:36:34.076Z,0.90
2019-04-26T09:37:38.738Z,1.10
2019-04-26T09:38:43.337Z,1.17
2019-04-26T09:39:47.860Z,1.33
2019-04-26T09:40:52.693Z,1.20
2019-04-26T09:42:09.669Z,0.87
2019-04-26T09:43:22.063Z,1.10
2019-04-26T09:44:28.279Z,1.00
2019-04-26T09:45:34.563Z,1.05
2019-04-26T09:46:40.975Z,0.90
2019-04-26T09:47:47.150Z,1.40
2019-04-26T09:48:56.048Z,0.90
2019-04-26T09:50:11.274Z,1.00
2019-04-26T09:51:15.589Z,1.07
2019-04-26T09:52:21.833Z,1.00
2019-04-26T09:53:26.392Z,1.00
2019-04-26T09:54:30.976Z,1.20
2019-04-26T09:55:35.970Z,1.10
2019-04-26T09:56:40.687Z,1.10
2019-04-26T09:57:45.431Z,1.00
2019-04-26T09:58:50.091Z,1.20
2019-04-26T09:59:54.859Z,1.02
2019-04-26T10:00:59.642Z,1.10
2019-04-26T10:02:04.551Z,1.22
2019-04-26T10:03:10.654Z,1.37
2019-04-26T10:04:15.359Z,1.20
2019-04-26T10:05:22.432Z,1.30
2019-04-26T10:06:29.744Z,1.40
2019-04-26T10:07:33.446Z,1.27
2019-04-26T10:08:39.039Z,1.20
2019-04-26T10:09:43.756Z,1.20
2019-04-26T10:10:51.514Z,1.10
2019-04-26T10:12:02.253Z,1.30
2019-04-26T10:13:08.531Z,1.25
2019-04-26T10:14:14.822Z,1.42
2019-04-26T10:15:39.072Z,1.20
2019-04-26T10:17:00.978Z,1.10
2019-04-26T10:18:08.054Z,1.20
2019-04-26T10:19:12.499Z,1.10
2019-04-26T10:20:17.214Z,1.10
2019-04-26T10:21:21.884Z,1.10
2019-04-26T10:22:28.396Z,1.30
2019-04-26T10:23:33.039Z,1.10
2019-04-26T10:24:37.605Z,1.35
2019-04-26T10:25:42.471Z,1.17
2019-04-26T10:26:47.039Z,1.23
2019-04-26T10:27:51.676Z,1.00
2019-04-26T10:28:56.625Z,1.30
2019-04-26T10:30:07.877Z,1.07
2019-04-26T10:31:07.438Z,1.30
2019-04-26T10:32:12.077Z,1.27
2019-04-26T10:33:16.677Z,1.40
2019-04-26T10:34:21.522Z,1.17
2019-04-26T10:35:26.089Z,1.37
2019-04-26T10:36:31.481Z,1.20
2019-04-26T10:37:39.719Z,1.30
2019-04-26T10:38:42.209Z,1.30
2019-04-26T10:39:46.744Z,1.10
2019-04-26T10:40:51.408Z,1.27
2019-04-26T10:41:56.032Z,1.22
2019-04-26T10:43:00.878Z,1.40
2019-04-26T10:44:05.674Z,0.95
2019-04-26T10:45:14.687Z,1.25
2019-04-26T10:46:18.526Z,1.10
2019-04-26T10:47:23.058Z,1.20
2019-04-26T10:48:27.601Z,1.40
2019-04-26T10:49:40.971Z,1.10
2019-04-26T10:50:45.503Z,1.12
2019-04-26T10:51:50.061Z,1.13
2019-04-26T10:53:14.147Z,1.20
2019-04-26T10:54:19.173Z,1.10
2019-04-26T10:55:46.526Z,1.20
2019-04-26T10:56:54.991Z,0.90
2019-04-26T10:58:01.417Z,1.27
2019-04-26T10:59:13.669Z,1.10
2019-04-26T11:00:30.187Z,1.00
2019-04-26T11:01:34.739Z,1.37
2019-04-26T11:02:39.658Z,1.02
2019-04-26T11:03:44.183Z,1.10
2019-04-26T11:04:48.720Z,0.90
2019-04-26T11:05:55.174Z,0.97
2019-04-26T11:07:02.032Z,0.90
2019-04-26T11:08:06.523Z,0.90
2019-04-26T11:09:11.143Z,0.80
2019-04-26T11:10:15.786Z,0.90
2019-04-26T11:11:20.646Z,1.00
2019-04-26T11:12:25.651Z,1.00
2019-04-26T11:13:30.243Z,0.80
2019-04-26T11:14:34.993Z,1.00
2019-04-26T11:15:39.636Z,1.17
2019-04-26T11:16:44.442Z,1.07
2019-04-26T11:17:50.024Z,0.98
2019-04-26T11:18:57.227Z,1.07
2019-04-26T11:20:01.211Z,1.12
2019-04-26T11:21:05.820Z,0.85
2019-04-26T11:22:10.471Z,0.80
2019-04-26T11:23:15.405Z,0.90
2019-04-26T11:24:20.960Z,0.90
2019-04-26T11:25:28.270Z,0.90
2019-04-26T11:26:34.809Z,1.00
2019-04-26T11:27:40.071Z,0.87
2019-04-26T11:28:44.130Z,0.80
2019-04-26T11:29:53.738Z,0.70
2019-04-26T11:30:57.385Z,0.70
2019-04-26T11:32:02.649Z,0.70
2019-04-26T11:33:10.862Z,0.70
2019-04-26T11:34:13.734Z,0.60
2019-04-26T11:35:18.407Z,0.70
2019-04-26T11:36:23.105Z,0.72
2019-04-26T11:37:27.748Z,0.70
2019-04-26T11:38:32.660Z,0.60
2019-04-26T11:39:40.444Z,0.60
2019-04-26T11:40:44.408Z,0.70
2019-04-26T11:41:49.869Z,0.43
2019-04-26T11:42:54.706Z,0.53
2019-04-26T11:43:59.334Z,0.60
2019-04-26T11:45:14.722Z,0.80
2019-04-26T11:46:17.271Z,0.60
2019-04-26T11:47:21.817Z,0.70
2019-04-26T11:48:29.294Z,0.55
2019-04-26T11:49:32.935Z,0.60
2019-04-26T11:50:37.829Z,0.62
2019-04-26T11:51:42.304Z,0.50
2019-04-26T11:52:46.841Z,0.65
2019-04-26T11:53:51.359Z,0.60
2019-04-26T11:54:56.240Z,0.53
2019-04-26T11:56:04.626Z,0.50
2019-04-26T11:57:08.207Z,0.40
2019-04-26T11:58:13.332Z,0.60
2019-04-26T11:59:17.827Z,0.60
2019-04-26T12:00:24.069Z,0.50
2019-04-26T12:01:29.412Z,0.87
2019-04-26T12:02:35.867Z,0.50
2019-04-26T12:03:42.078Z,0.50
2019-04-26T12:04:49.521Z,0.40
2019-04-26T12:06:08.301Z,0.30
2019-04-26T12:07:20.547Z,0.50
2019-04-26T12:08:32.510Z,0.50
2019-04-26T12:09:38.797Z,0.50
2019-04-26T12:10:44.475Z,0.53
2019-04-26T12:12:03.513Z,0.60
2019-04-26T12:13:05.200Z,0.40
2019-04-26T12:14:03.921Z,0.55
2019-04-26T12:15:10.158Z,0.30
2019-04-26T12:16:18.850Z,0.50
2019-04-26T12:17:21.094Z,0.40
2019-04-26T12:18:25.680Z,0.50
2019-04-26T12:19:30.373Z,0.40
2019-04-26T12:20:34.908Z,0.27
2019-04-26T12:21:39.491Z,0.50
2019-04-26T12:22:44.524Z,0.40
2019-04-26T12:23:51.323Z,0.40
2019-04-26T12:24:55.303Z,0.50
2019-04-26T12:25:59.931Z,0.43
2019-04-26T12:27:04.795Z,0.50
2019-04-26T12:28:09.375Z,0.50
2019-04-26T12:29:14.688Z,0.50
2019-04-26T12:30:24.745Z,0.50
2019-04-26T12:31:26.399Z,0.50
2019-04-26T12:32:30.996Z,0.50
2019-04-26T12:33:39.102Z,0.50
2019-04-26T12:34:42.021Z,0.55
2019-04-26T12:35:48.025Z,0.60
2019-04-26T12:36:52.541Z,0.60
2019-04-26T12:37:57.054Z,0.70
2019-04-26T12:39:02.215Z,0.50
2019-04-26T12:40:11.296Z,0.40
2019-04-26T12:41:17.306Z,0.50
2019-04-26T12:42:21.130Z,0.60
2019-04-26T12:43:26.142Z,0.50
2019-04-26T12:44:36.803Z,0.50
2019-04-26T12:45:56.313Z,0.60
2019-04-26T12:47:05.262Z,0.50
2019-04-26T12:48:15.819Z,0.50
2019-04-26T12:49:24.141Z,0.60
2019-04-26T12:50:29.547Z,0.40
2019-04-26T12:51:33.649Z,0.60
2019-04-26T12:52:38.272Z,0.40
2019-04-26T12:53:42.809Z,0.50
2019-04-26T12:54:47.324Z,0.50
2019-04-26T12:55:53.242Z,0.40
2019-04-26T12:57:01.559Z,0.50
2019-04-26T12:58:04.633Z,0.40
2019-04-26T12:59:09.095Z,0.60
2019-04-26T13:00:15.551Z,0.47
2019-04-26T13:01:20.075Z,0.50
2019-04-26T13:02:24.791Z,0.50
2019-04-26T13:03:30.412Z,0.30
2019-04-26T13:04:36.231Z,0.60
2019-04-26T13:05:41.188Z,0.60
2019-04-26T13:06:47.453Z,0.55
2019-04-26T13:07:53.740Z,0.50
2019-04-26T13:08:58.199Z,0.50
2019-04-26T13:10:06.809Z,0.50
2019-04-26T13:11:14.957Z,0.50
2019-04-26T13:12:26.033Z,0.50
2019-04-26T13:13:37.018Z,0.40
2019-04-26T13:14:55.090Z,0.45
2019-04-26T13:16:01.247Z,0.62
2019-04-26T13:17:07.492Z,0.60
2019-04-26T13:18:12.082Z,0.60
2019-04-26T13:19:19.847Z,0.50
2019-04-26T13:20:24.311Z,0.50
2019-04-26T13:21:29.483Z,0.60
2019-04-26T13:22:45.430Z,0.30
2019-04-26T13:23:40.364Z,0.50
2019-04-26T13:24:44.942Z,0.45
2019-04-26T13:25:49.637Z,0.40
2019-04-26T13:26:54.339Z,0.50
2019-04-26T13:27:58.876Z,0.42
2019-04-26T13:29:03.536Z,0.35
2019-04-26T13:30:10.762Z,0.40
2019-04-26T13:31:14.492Z,0.40
2019-04-26T13:32:19.384Z,0.33
2019-04-26T13:33:27.517Z,0.40
2019-04-26T13:34:33.353Z,0.40
2019-04-26T13:35:36.358Z,0.47
2019-04-26T13:36:40.852Z,0.50
2019-04-26T13:37:45.368Z,0.30
2019-04-26T13:38:49.861Z,0.40
2019-04-26T13:39:55.150Z,0.35
2019-04-26T13:41:04.671Z,0.30
2019-04-26T13:42:09.768Z,0.57
2019-04-26T13:43:14.728Z,0.42
2019-04-26T13:44:21.015Z,0.23
2019-04-26T13:45:42.435Z,0.40
2019-04-26T13:47:07.948Z,0.27
2019-04-26T13:48:26.470Z,0.28
2019-04-26T13:49:33.048Z,0.40
2019-04-26T13:50:39.292Z,0.30
2019-04-26T13:51:45.496Z,0.40
2019-04-26T13:52:50.042Z,0.40
2019-04-26T13:53:54.554Z,0.40
2019-04-26T13:54:59.243Z,0.30
2019-04-26T13:56:03.803Z,0.30
2019-04-26T13:57:10.129Z,0.60
2019-04-26T13:58:15.297Z,0.40
2019-04-26T13:59:20.672Z,0.50
2019-04-26T14:00:26.814Z,0.30
2019-04-26T14:01:31.449Z,0.37
2019-04-26T14:02:35.923Z,0.42
2019-04-26T14:03:40.607Z,0.35
2019-04-26T14:04:45.425Z,0.40
2019-04-26T14:05:49.893Z,0.40
2019-04-26T14:06:54.503Z,0.30
2019-04-26T14:07:58.968Z,0.30
2019-04-26T14:09:04.268Z,0.40
2019-04-26T14:10:09.104Z,0.40
2019-04-26T14:11:13.636Z,0.50
2019-04-26T14:12:19.047Z,0.30
2019-04-26T14:13:24.977Z,0.40
2019-04-26T14:14:33.980Z,0.37
2019-04-26T14:15:39.509Z,0.40
2019-04-26T14:16:43.384Z,0.50
2019-04-26T14:17:47.911Z,0.40
2019-04-26T14:18:53.596Z,0.40
2019-04-26T14:19:58.263Z,0.40
2019-04-26T14:21:02.804Z,0.40
2019-04-26T14:22:08.372Z,0.40
2019-04-26T14:23:26.087Z,0.45
2019-04-26T14:24:32.253Z,0.50
2019-04-26T14:25:47.146Z,0.30
2019-04-26T14:26:56.293Z,0.40
2019-04-26T14:28:00.821Z,0.30
2019-04-26T14:29:05.502Z,0.40
2019-04-26T14:30:10.247Z,0.47
2019-04-26T14:31:16.468Z,0.40
2019-04-26T14:32:22.897Z,0.40
2019-04-26T14:33:30.722Z,0.30
2019-04-26T14:34:36.208Z,0.40
2019-04-26T14:35:39.783Z,0.50
2019-04-26T14:36:44.332Z,0.30
2019-04-26T14:37:49.886Z,0.42
2019-04-26T14:39:05.344Z,0.30
2019-04-26T14:40:16.016Z,0.37
2019-04-26T14:41:07.211Z,0.40
2019-04-26T14:42:12.032Z,0.50
2019-04-26T14:43:18.266Z,0.40
2019-04-26T14:44:22.788Z,0.40
2019-04-26T14:45:27.445Z,0.50
2019-04-26T14:46:32.008Z,0.40
2019-04-26T14:47:46.626Z,0.50
2019-04-26T14:48:44.671Z,0.40
2019-04-26T14:49:48.994Z,0.30
2019-04-26T14:50:53.506Z,0.40
2019-04-26T14:51:58.063Z,0.50
2019-04-26T14:53:03.606Z,0.40
2019-04-26T14:54:11.472Z,0.42
2019-04-26T14:55:16.444Z,0.70
2019-04-26T14:56:24.779Z,0.60
2019-04-26T14:57:31.406Z,0.40
2019-04-26T14:58:33.755Z,0.50
2019-04-26T14:59:47.106Z,0.40
2019-04-26T15:00:55.911Z,0.50
2019-04-26T15:02:10.435Z,0.40
2019-04-26T15:03:29.880Z,0.50
2019-04-26T15:04:35.997Z,0.70
2019-04-26T15:05:54.095Z,0.60
2019-04-26T15:06:59.676Z,0.40
2019-04-26T15:08:09.720Z,0.33
2019-04-26T15:09:19.274Z,0.40
2019-04-26T15:10:18.622Z,0.42
2019-04-26T15:11:23.175Z,0.40
2019-04-26T15:12:27.817Z,0.50
2019-04-26T15:13:34.795Z,0.40
2019-04-26T15:14:38.753Z,0.60
2019-04-26T15:15:45.940Z,0.60
2019-04-26T15:16:49.650Z,0.50
2019-04-26T15:17:59.523Z,0.40
2019-04-26T15:19:00.578Z,0.40
2019-04-26T15:20:06.619Z,0.28
2019-04-26T15:21:12.838Z,0.50
2019-04-26T15:22:17.558Z,0.50
2019-04-26T15:23:23.952Z,0.30
2019-04-26T15:24:30.163Z,0.40
2019-04-26T15:25:36.780Z,0.42
2019-04-26T15:26:40.990Z,0.30
2019-04-26T15:27:45.477Z,0.30
2019-04-26T15:28:51.455Z,0.60
2019-04-26T15:29:57.285Z,0.50
2019-04-26T15:31:02.471Z,0.57
2019-04-26T15:32:07.115Z,0.33
2019-04-26T15:33:12.676Z,0.40
2019-04-26T15:34:19.273Z,0.53
2019-04-26T15:35:24.173Z,0.57
2019-04-26T15:36:28.750Z,0.50
2019-04-26T15:37:33.270Z,0.60
2019-04-26T15:38:41.695Z,0.60
2019-04-26T15:39:55.088Z,0.60
2019-04-26T15:41:00.239Z,0.57
2019-04-26T15:42:09.489Z,0.47
2019-04-26T15:43:24.111Z,0.67
2019-04-26T15:44:36.348Z,0.40
2019-04-26T15:45:42.601Z,0.70
2019-04-26T15:46:49.740Z,0.50
2019-04-26T15:47:58.719Z,0.42
2019-04-26T15:49:05.204Z,0.70
2019-04-26T15:50:20.490Z,0.80
2019-04-26T15:51:27.545Z,0.60
2019-04-26T15:52:34.101Z,0.60
2019-04-26T15:53:38.497Z,0.70
2019-04-26T15:54:43.068Z,0.50
2019-04-26T15:55:47.722Z,0.50
2019-04-26T15:56:53.759Z,0.60
2019-04-26T15:58:02.714Z,0.65
2019-04-26T15:59:05.006Z,0.40
2019-04-26T16:00:10.035Z,0.70